Airfield :
LOGIN :

Register | Disclaimer

   EN    FR    IT 

 










Legend :    VFR   Marginal VFR   IFR   Intensive IFR   Very Intensive IFR
Visi :
Ceiling :
>= 8 km
>= 3000ft
5 to 8 km
1000 to 3000 ft
1500m to 5 km
500 to 1000 ft
800 to 1500m
200 to 500 ft
< 800m
< 200 ft
Symbols :   Thunderstorms  Fog  Heavy snow  Heavy precipitations  Wind > 20 kt
SIGMETs :     Misc.  Thunderstorms  Icing  Turbulence  Mountain Waves  Volcanic Ashes







- Airport Elevation : 257 ft
- IATA code : MAN
- Download approach charts


EGCC - Manchester

CURRENT METAR :
  • 210950Z AUTO 24006KT 9999 OVC025 11/09 Q1033 NOSIG

EXPIRED METARs :
  • 210920Z AUTO 24009KT 9999 FEW016 OVC026 11/09 Q1032 NOSIG
  • 210850Z AUTO 22005KT 9999 OVC026 11/09 Q1032 NOSIG
  • 210820Z AUTO 21006KT 190V250 9999 OVC026 11/09 Q1032 NOSIG
  • 210750Z AUTO 20006KT 9999 OVC027 10/09 Q1032
  • 210720Z AUTO VRB03KT 9999 OVC026 10/08 Q1032

TAF TAF EGCC
Valid from the 21 at 06:00 until the 22 at 12:00 UTC


210456Z 2106/2212 18008KT 9999 SCT025
TEMPO 2106/2115 BKN014
PROB30
TEMPO 2106/2110 6000 BKN009
TEMPO 2200/2210 9000 BKN009
ATIS : +44 161 499 2324
No reported NOTAMs for that airfield.



MET'MAP, your aeronautical weather chart ! - Copyright ORBIFLY December 2007 - Disclaimer

ORBIFLY MET'MAP TEAM :

Programming & Development : Alexandra Zaïnal
Concept & Development : Baudouin d'Aumeries
Co-Development & Prog : Marc-Olivier Méhu
Technical & hardware support : Manuel Goepfert

Contact : metmap@orbifly.com




SOURCES & CREDITS :

   NOAA